sensor_id;sensor_type;location;lat;lon;timestamp;P1;durP1;ratioP1;P2;durP2;ratioP2
37895;SDS011;23733;53.254;10.430;2023-09-07T00:00:44;8.40;;;3.20;;
37895;SDS011;23733;53.254;10.430;2023-09-07T00:03:11;3.77;;;2.90;;
37895;SDS011;23733;53.254;10.430;2023-09-07T00:05:37;4.97;;;2.40;;
37895;SDS011;23733;53.254;10.430;2023-09-07T00:08:04;3.73;;;2.60;;
37895;SDS011;23733;53.254;10.430;2023-09-07T00:10:30;6.10;;;2.67;;
37895;SDS011;23733;53.254;10.430;2023-09-07T00:13:01;5.03;;;2.53;;
37895;SDS011;23733;53.254;10.430;2023-09-07T00:15:28;3.10;;;2.80;;
37895;SDS011;23733;53.254;10.430;2023-09-07T00:17:55;3.53;;;2.57;;
37895;SDS011;23733;53.254;10.430;2023-09-07T00:20:22;3.80;;;2.53;;
37895;SDS011;23733;53.254;10.430;2023-09-07T00:22:49;5.30;;;3.00;;
37895;SDS011;23733;53.254;10.430;2023-09-07T00:25:15;5.50;;;3.10;;
37895;SDS011;23733;53.254;10.430;2023-09-07T00:27:42;4.00;;;2.57;;
37895;SDS011;23733;53.254;10.430;2023-09-07T00:30:08;6.03;;;2.93;;
37895;SDS011;23733;53.254;10.430;2023-09-07T00:32:38;3.57;;;2.73;;
37895;SDS011;23733;53.254;10.430;2023-09-07T00:35:05;3.80;;;2.93;;
37895;SDS011;23733;53.254;10.430;2023-09-07T00:37:32;5.30;;;2.87;;
37895;SDS011;23733;53.254;10.430;2023-09-07T00:39:58;4.83;;;3.03;;
37895;SDS011;23733;53.254;10.430;2023-09-07T00:42:25;4.13;;;3.00;;
37895;SDS011;23733;53.254;10.430;2023-09-07T00:44:51;4.63;;;3.20;;
37895;SDS011;23733;53.254;10.430;2023-09-07T00:47:17;4.90;;;3.23;;
37895;SDS011;23733;53.254;10.430;2023-09-07T00:49:44;4.20;;;3.20;;
37895;SDS011;23733;53.254;10.430;2023-09-07T00:52:10;4.77;;;2.90;;
37895;SDS011;23733;53.254;10.430;2023-09-07T00:54:37;3.43;;;2.70;;
37895;SDS011;23733;53.254;10.430;2023-09-07T00:57:05;5.97;;;2.90;;
37895;SDS011;23733;53.254;10.430;2023-09-07T00:59:34;4.57;;;3.10;;
37895;SDS011;23733;53.254;10.430;2023-09-07T01:02:01;5.70;;;2.90;;
37895;SDS011;23733;53.254;10.430;2023-09-07T01:04:28;6.27;;;3.20;;
37895;SDS011;23733;53.254;10.430;2023-09-07T01:07:01;7.10;;;3.13;;
37895;SDS011;23733;53.254;10.430;2023-09-07T01:09:28;4.60;;;3.17;;
37895;SDS011;23733;53.254;10.430;2023-09-07T01:11:56;3.57;;;2.70;;
37895;SDS011;23733;53.254;10.430;2023-09-07T01:14:23;7.50;;;3.00;;
37895;SDS011;23733;53.254;10.430;2023-09-07T01:16:49;4.10;;;2.80;;
37895;SDS011;23733;53.254;10.430;2023-09-07T01:19:16;5.27;;;3.07;;
37895;SDS011;23733;53.254;10.430;2023-09-07T01:21:42;3.80;;;2.80;;
37895;SDS011;23733;53.254;10.430;2023-09-07T01:24:09;6.67;;;2.87;;
37895;SDS011;23733;53.254;10.430;2023-09-07T01:26:35;4.17;;;2.90;;
37895;SDS011;23733;53.254;10.430;2023-09-07T01:29:05;6.83;;;3.40;;
37895;SDS011;23733;53.254;10.430;2023-09-07T01:31:37;5.80;;;3.33;;
37895;SDS011;23733;53.254;10.430;2023-09-07T01:34:04;7.13;;;3.40;;
37895;SDS011;23733;53.254;10.430;2023-09-07T01:36:31;8.83;;;3.50;;
37895;SDS011;23733;53.254;10.430;2023-09-07T01:38:58;7.80;;;3.37;;
37895;SDS011;23733;53.254;10.430;2023-09-07T01:41:24;7.97;;;2.97;;
37895;SDS011;23733;53.254;10.430;2023-09-07T01:43:51;7.20;;;3.33;;
37895;SDS011;23733;53.254;10.430;2023-09-07T01:46:17;7.20;;;3.10;;
37895;SDS011;23733;53.254;10.430;2023-09-07T01:48:43;5.43;;;3.17;;
37895;SDS011;23733;53.254;10.430;2023-09-07T01:51:09;5.43;;;3.03;;
37895;SDS011;23733;53.254;10.430;2023-09-07T01:53:36;4.00;;;2.80;;
37895;SDS011;23733;53.254;10.430;2023-09-07T01:56:02;5.73;;;3.63;;
37895;SDS011;23733;53.254;10.430;2023-09-07T01:58:28;8.70;;;3.13;;
37895;SDS011;23733;53.254;10.430;2023-09-07T02:00:58;5.67;;;3.30;;
37895;SDS011;23733;53.254;10.430;2023-09-07T02:03:24;4.37;;;2.97;;
37895;SDS011;23733;53.254;10.430;2023-09-07T02:05:52;4.77;;;3.30;;
37895;SDS011;23733;53.254;10.430;2023-09-07T02:08:19;3.27;;;2.77;;
37895;SDS011;23733;53.254;10.430;2023-09-07T02:10:45;6.00;;;2.67;;
37895;SDS011;23733;53.254;10.430;2023-09-07T02:13:11;4.23;;;2.97;;
37895;SDS011;23733;53.254;10.430;2023-09-07T02:15:38;6.20;;;2.97;;
37895;SDS011;23733;53.254;10.430;2023-09-07T02:18:05;5.50;;;3.20;;
37895;SDS011;23733;53.254;10.430;2023-09-07T02:20:31;8.13;;;3.10;;
37895;SDS011;23733;53.254;10.430;2023-09-07T02:22:58;4.00;;;3.27;;
37895;SDS011;23733;53.254;10.430;2023-09-07T02:25:24;4.63;;;3.23;;
37895;SDS011;23733;53.254;10.430;2023-09-07T02:27:50;10.00;;;2.93;;
37895;SDS011;23733;53.254;10.430;2023-09-07T02:30:17;7.67;;;3.10;;
37895;SDS011;23733;53.254;10.430;2023-09-07T02:32:43;5.03;;;2.87;;
37895;SDS011;23733;53.254;10.430;2023-09-07T02:35:09;3.77;;;2.80;;
37895;SDS011;23733;53.254;10.430;2023-09-07T02:37:36;4.60;;;3.00;;
37895;SDS011;23733;53.254;10.430;2023-09-07T02:40:02;4.43;;;3.00;;
37895;SDS011;23733;53.254;10.430;2023-09-07T02:42:35;4.10;;;3.10;;
37895;SDS011;23733;53.254;10.430;2023-09-07T02:45:01;6.50;;;3.20;;
37895;SDS011;23733;53.254;10.430;2023-09-07T02:47:27;4.33;;;2.80;;
37895;SDS011;23733;53.254;10.430;2023-09-07T02:49:53;6.57;;;2.90;;
37895;SDS011;23733;53.254;10.430;2023-09-07T02:52:20;3.60;;;2.90;;
37895;SDS011;23733;53.254;10.430;2023-09-07T02:54:46;5.07;;;3.10;;
37895;SDS011;23733;53.254;10.430;2023-09-07T02:57:12;6.40;;;3.10;;
37895;SDS011;23733;53.254;10.430;2023-09-07T02:59:39;3.63;;;2.50;;
37895;SDS011;23733;53.254;10.430;2023-09-07T03:02:05;4.37;;;2.93;;
37895;SDS011;23733;53.254;10.430;2023-09-07T03:04:32;4.17;;;2.80;;
37895;SDS011;23733;53.254;10.430;2023-09-07T03:07:00;7.87;;;3.20;;
37895;SDS011;23733;53.254;10.430;2023-09-07T03:09:27;3.70;;;2.80;;
37895;SDS011;23733;53.254;10.430;2023-09-07T03:11:53;5.33;;;3.00;;
37895;SDS011;23733;53.254;10.430;2023-09-07T03:14:19;4.83;;;2.93;;
37895;SDS011;23733;53.254;10.430;2023-09-07T03:16:46;9.07;;;3.13;;
37895;SDS011;23733;53.254;10.430;2023-09-07T03:19:15;3.70;;;3.27;;
37895;SDS011;23733;53.254;10.430;2023-09-07T03:21:41;4.13;;;3.10;;
37895;SDS011;23733;53.254;10.430;2023-09-07T03:24:08;4.53;;;3.20;;
37895;SDS011;23733;53.254;10.430;2023-09-07T03:26:34;4.80;;;3.37;;
37895;SDS011;23733;53.254;10.430;2023-09-07T03:29:01;5.23;;;3.53;;
37895;SDS011;23733;53.254;10.430;2023-09-07T03:31:27;6.03;;;3.27;;
37895;SDS011;23733;53.254;10.430;2023-09-07T03:33:53;5.10;;;3.23;;
37895;SDS011;23733;53.254;10.430;2023-09-07T03:36:20;4.77;;;3.20;;
37895;SDS011;23733;53.254;10.430;2023-09-07T03:38:47;5.43;;;3.50;;
37895;SDS011;23733;53.254;10.430;2023-09-07T03:41:13;6.47;;;2.90;;
37895;SDS011;23733;53.254;10.430;2023-09-07T03:43:39;5.47;;;3.43;;
37895;SDS011;23733;53.254;10.430;2023-09-07T03:46:06;4.33;;;3.30;;
37895;SDS011;23733;53.254;10.430;2023-09-07T03:48:32;5.40;;;3.20;;
37895;SDS011;23733;53.254;10.430;2023-09-07T03:50:58;3.90;;;3.20;;
37895;SDS011;23733;53.254;10.430;2023-09-07T03:53:25;4.50;;;3.37;;
37895;SDS011;23733;53.254;10.430;2023-09-07T03:55:51;4.30;;;3.43;;
37895;SDS011;23733;53.254;10.430;2023-09-07T03:58:17;6.17;;;3.50;;
37895;SDS011;23733;53.254;10.430;2023-09-07T04:00:44;5.80;;;3.50;;
37895;SDS011;23733;53.254;10.430;2023-09-07T04:03:10;6.67;;;4.23;;
37895;SDS011;23733;53.254;10.430;2023-09-07T04:05:36;5.83;;;4.00;;
37895;SDS011;23733;53.254;10.430;2023-09-07T04:08:04;3.93;;;3.53;;
37895;SDS011;23733;53.254;10.430;2023-09-07T04:10:30;5.67;;;3.80;;
37895;SDS011;23733;53.254;10.430;2023-09-07T04:12:56;6.10;;;3.60;;
37895;SDS011;23733;53.254;10.430;2023-09-07T04:15:23;6.53;;;2.90;;
37895;SDS011;23733;53.254;10.430;2023-09-07T04:17:51;4.20;;;3.37;;
37895;SDS011;23733;53.254;10.430;2023-09-07T04:20:17;3.23;;;2.93;;
37895;SDS011;23733;53.254;10.430;2023-09-07T04:22:43;7.13;;;3.20;;
37895;SDS011;23733;53.254;10.430;2023-09-07T04:25:09;3.53;;;3.20;;
37895;SDS011;23733;53.254;10.430;2023-09-07T04:27:36;4.63;;;3.50;;
37895;SDS011;23733;53.254;10.430;2023-09-07T04:30:02;6.30;;;3.60;;
37895;SDS011;23733;53.254;10.430;2023-09-07T04:32:28;3.60;;;2.93;;
37895;SDS011;23733;53.254;10.430;2023-09-07T04:34:55;4.27;;;3.60;;
37895;SDS011;23733;53.254;10.430;2023-09-07T04:37:22;5.20;;;3.50;;
37895;SDS011;23733;53.254;10.430;2023-09-07T04:39:51;4.27;;;3.53;;
37895;SDS011;23733;53.254;10.430;2023-09-07T04:42:19;4.47;;;3.50;;
37895;SDS011;23733;53.254;10.430;2023-09-07T04:44:46;6.03;;;3.73;;
37895;SDS011;23733;53.254;10.430;2023-09-07T04:47:13;4.17;;;3.43;;
37895;SDS011;23733;53.254;10.430;2023-09-07T04:49:40;3.57;;;3.20;;
37895;SDS011;23733;53.254;10.430;2023-09-07T04:52:07;5.40;;;3.87;;
37895;SDS011;23733;53.254;10.430;2023-09-07T04:54:34;4.80;;;3.27;;
37895;SDS011;23733;53.254;10.430;2023-09-07T04:57:00;5.63;;;3.50;;
37895;SDS011;23733;53.254;10.430;2023-09-07T04:59:26;5.40;;;3.83;;
37895;SDS011;23733;53.254;10.430;2023-09-07T05:01:53;6.20;;;3.60;;
37895;SDS011;23733;53.254;10.430;2023-09-07T05:04:19;4.80;;;3.63;;
37895;SDS011;23733;53.254;10.430;2023-09-07T05:06:45;4.57;;;3.80;;
37895;SDS011;23733;53.254;10.430;2023-09-07T05:09:11;5.43;;;3.60;;
37895;SDS011;23733;53.254;10.430;2023-09-07T05:11:37;5.30;;;3.77;;
37895;SDS011;23733;53.254;10.430;2023-09-07T05:14:03;4.27;;;3.83;;
37895;SDS011;23733;53.254;10.430;2023-09-07T05:16:29;5.73;;;3.87;;
37895;SDS011;23733;53.254;10.430;2023-09-07T05:18:55;6.57;;;4.23;;
37895;SDS011;23733;53.254;10.430;2023-09-07T05:21:21;6.37;;;3.60;;
37895;SDS011;23733;53.254;10.430;2023-09-07T05:23:47;5.80;;;3.93;;
37895;SDS011;23733;53.254;10.430;2023-09-07T05:26:13;7.30;;;3.57;;
37895;SDS011;23733;53.254;10.430;2023-09-07T05:28:42;4.57;;;3.70;;
37895;SDS011;23733;53.254;10.430;2023-09-07T05:31:08;4.00;;;3.60;;
37895;SDS011;23733;53.254;10.430;2023-09-07T05:33:34;7.13;;;4.00;;
37895;SDS011;23733;53.254;10.430;2023-09-07T05:36:00;5.40;;;3.90;;
37895;SDS011;23733;53.254;10.430;2023-09-07T05:38:27;6.23;;;4.27;;
37895;SDS011;23733;53.254;10.430;2023-09-07T05:40:53;4.97;;;4.00;;
37895;SDS011;23733;53.254;10.430;2023-09-07T05:43:20;4.77;;;3.63;;
37895;SDS011;23733;53.254;10.430;2023-09-07T05:45:46;7.23;;;3.83;;
37895;SDS011;23733;53.254;10.430;2023-09-07T05:48:13;8.83;;;3.93;;
37895;SDS011;23733;53.254;10.430;2023-09-07T05:50:41;5.17;;;4.10;;
37895;SDS011;23733;53.254;10.430;2023-09-07T05:53:08;5.00;;;4.07;;
37895;SDS011;23733;53.254;10.430;2023-09-07T05:55:34;4.13;;;3.73;;
37895;SDS011;23733;53.254;10.430;2023-09-07T05:58:03;4.80;;;4.10;;
37895;SDS011;23733;53.254;10.430;2023-09-07T06:00:30;4.60;;;4.07;;
37895;SDS011;23733;53.254;10.430;2023-09-07T06:02:56;4.50;;;3.60;;
37895;SDS011;23733;53.254;10.430;2023-09-07T06:05:22;4.97;;;3.83;;
37895;SDS011;23733;53.254;10.430;2023-09-07T06:07:49;5.40;;;3.77;;
37895;SDS011;23733;53.254;10.430;2023-09-07T06:10:15;5.07;;;3.90;;
37895;SDS011;23733;53.254;10.430;2023-09-07T06:12:42;6.63;;;4.13;;
37895;SDS011;23733;53.254;10.430;2023-09-07T06:15:09;5.53;;;3.30;;
37895;SDS011;23733;53.254;10.430;2023-09-07T06:17:35;5.10;;;3.70;;
37895;SDS011;23733;53.254;10.430;2023-09-07T06:20:02;4.43;;;4.03;;
37895;SDS011;23733;53.254;10.430;2023-09-07T06:22:28;4.37;;;3.97;;
37895;SDS011;23733;53.254;10.430;2023-09-07T06:24:54;5.73;;;3.93;;
37895;SDS011;23733;53.254;10.430;2023-09-07T06:27:20;5.47;;;3.80;;
37895;SDS011;23733;53.254;10.430;2023-09-07T06:29:46;7.27;;;3.80;;
37895;SDS011;23733;53.254;10.430;2023-09-07T06:32:12;4.10;;;3.70;;
37895;SDS011;23733;53.254;10.430;2023-09-07T06:34:39;6.40;;;3.47;;
37895;SDS011;23733;53.254;10.430;2023-09-07T06:37:05;4.73;;;3.80;;
37895;SDS011;23733;53.254;10.430;2023-09-07T06:39:31;5.10;;;3.37;;
37895;SDS011;23733;53.254;10.430;2023-09-07T06:41:58;5.93;;;3.60;;
37895;SDS011;23733;53.254;10.430;2023-09-07T06:44:24;4.00;;;3.57;;
37895;SDS011;23733;53.254;10.430;2023-09-07T06:46:51;5.00;;;3.77;;
37895;SDS011;23733;53.254;10.430;2023-09-07T06:49:17;4.73;;;4.20;;
37895;SDS011;23733;53.254;10.430;2023-09-07T06:51:44;6.47;;;4.00;;
37895;SDS011;23733;53.254;10.430;2023-09-07T06:54:10;7.03;;;4.20;;
37895;SDS011;23733;53.254;10.430;2023-09-07T06:56:38;5.37;;;3.87;;
37895;SDS011;23733;53.254;10.430;2023-09-07T06:59:05;7.93;;;4.30;;
37895;SDS011;23733;53.254;10.430;2023-09-07T07:01:31;6.87;;;3.83;;
37895;SDS011;23733;53.254;10.430;2023-09-07T07:03:57;4.93;;;3.53;;
37895;SDS011;23733;53.254;10.430;2023-09-07T07:06:24;5.43;;;3.50;;
37895;SDS011;23733;53.254;10.430;2023-09-07T07:08:51;6.83;;;3.93;;
37895;SDS011;23733;53.254;10.430;2023-09-07T07:11:17;7.07;;;3.50;;
37895;SDS011;23733;53.254;10.430;2023-09-07T07:13:43;3.87;;;3.47;;
37895;SDS011;23733;53.254;10.430;2023-09-07T07:16:10;8.90;;;3.40;;
37895;SDS011;23733;53.254;10.430;2023-09-07T07:18:36;4.70;;;3.40;;
37895;SDS011;23733;53.254;10.430;2023-09-07T07:21:02;4.90;;;3.70;;
37895;SDS011;23733;53.254;10.430;2023-09-07T07:23:29;3.33;;;3.00;;
37895;SDS011;23733;53.254;10.430;2023-09-07T07:25:55;4.53;;;3.40;;
37895;SDS011;23733;53.254;10.430;2023-09-07T07:28:21;4.83;;;3.40;;
37895;SDS011;23733;53.254;10.430;2023-09-07T07:30:48;3.70;;;3.30;;
37895;SDS011;23733;53.254;10.430;2023-09-07T07:33:14;4.60;;;3.60;;
37895;SDS011;23733;53.254;10.430;2023-09-07T07:35:40;4.57;;;3.80;;
37895;SDS011;23733;53.254;10.430;2023-09-07T07:38:06;3.47;;;3.17;;
37895;SDS011;23733;53.254;10.430;2023-09-07T07:40:33;4.20;;;3.20;;
37895;SDS011;23733;53.254;10.430;2023-09-07T07:42:59;3.80;;;3.03;;
37895;SDS011;23733;53.254;10.430;2023-09-07T07:45:26;5.13;;;3.50;;
37895;SDS011;23733;53.254;10.430;2023-09-07T07:47:52;4.60;;;3.50;;
37895;SDS011;23733;53.254;10.430;2023-09-07T07:50:19;6.40;;;3.63;;
37895;SDS011;23733;53.254;10.430;2023-09-07T07:52:45;8.30;;;3.90;;
37895;SDS011;23733;53.254;10.430;2023-09-07T07:55:12;4.90;;;3.53;;
37895;SDS011;23733;53.254;10.430;2023-09-07T07:57:38;5.30;;;3.73;;
37895;SDS011;23733;53.254;10.430;2023-09-07T08:00:05;4.63;;;3.50;;
37895;SDS011;23733;53.254;10.430;2023-09-07T08:02:32;4.20;;;3.63;;
37895;SDS011;23733;53.254;10.430;2023-09-07T08:04:58;5.23;;;3.60;;
37895;SDS011;23733;53.254;10.430;2023-09-07T08:07:25;5.70;;;3.43;;
37895;SDS011;23733;53.254;10.430;2023-09-07T08:09:52;4.07;;;3.50;;
37895;SDS011;23733;53.254;10.430;2023-09-07T08:12:19;6.03;;;4.27;;
37895;SDS011;23733;53.254;10.430;2023-09-07T08:14:45;4.40;;;3.60;;
37895;SDS011;23733;53.254;10.430;2023-09-07T08:17:11;4.63;;;3.70;;
37895;SDS011;23733;53.254;10.430;2023-09-07T08:19:38;5.13;;;3.83;;
37895;SDS011;23733;53.254;10.430;2023-09-07T08:22:04;3.83;;;3.30;;
37895;SDS011;23733;53.254;10.430;2023-09-07T08:24:31;6.37;;;3.87;;
37895;SDS011;23733;53.254;10.430;2023-09-07T08:26:58;5.33;;;3.60;;
37895;SDS011;23733;53.254;10.430;2023-09-07T08:29:25;7.37;;;3.87;;
37895;SDS011;23733;53.254;10.430;2023-09-07T08:31:52;4.17;;;3.50;;
37895;SDS011;23733;53.254;10.430;2023-09-07T08:34:19;3.70;;;3.30;;
37895;SDS011;23733;53.254;10.430;2023-09-07T08:36:47;5.23;;;3.60;;
37895;SDS011;23733;53.254;10.430;2023-09-07T08:39:15;4.17;;;3.77;;
37895;SDS011;23733;53.254;10.430;2023-09-07T08:41:43;4.20;;;3.80;;
37895;SDS011;23733;53.254;10.430;2023-09-07T08:44:10;4.77;;;3.80;;
37895;SDS011;23733;53.254;10.430;2023-09-07T08:46:39;5.33;;;3.80;;
37895;SDS011;23733;53.254;10.430;2023-09-07T08:49:06;4.03;;;3.50;;
37895;SDS011;23733;53.254;10.430;2023-09-07T08:51:34;6.03;;;3.50;;
37895;SDS011;23733;53.254;10.430;2023-09-07T08:54:04;5.47;;;3.40;;
37895;SDS011;23733;53.254;10.430;2023-09-07T08:56:30;4.30;;;3.53;;
37895;SDS011;23733;53.254;10.430;2023-09-07T08:58:57;4.17;;;3.37;;
37895;SDS011;23733;53.254;10.430;2023-09-07T09:01:24;9.07;;;3.40;;
37895;SDS011;23733;53.254;10.430;2023-09-07T09:03:50;4.67;;;3.03;;
37895;SDS011;23733;53.254;10.430;2023-09-07T09:06:19;6.37;;;3.40;;
37895;SDS011;23733;53.254;10.430;2023-09-07T09:11:15;4.63;;;3.60;;
37895;SDS011;23733;53.254;10.430;2023-09-07T09:13:42;6.73;;;3.77;;
37895;SDS011;23733;53.254;10.430;2023-09-07T09:16:09;4.20;;;3.47;;
37895;SDS011;23733;53.254;10.430;2023-09-07T09:18:36;10.20;;;3.87;;
37895;SDS011;23733;53.254;10.430;2023-09-07T09:21:03;8.10;;;3.70;;
37895;SDS011;23733;53.254;10.430;2023-09-07T09:23:32;3.97;;;3.23;;
37895;SDS011;23733;53.254;10.430;2023-09-07T09:25:59;6.93;;;3.73;;
37895;SDS011;23733;53.254;10.430;2023-09-07T09:28:26;6.13;;;3.53;;
37895;SDS011;23733;53.254;10.430;2023-09-07T09:30:53;5.23;;;3.40;;
37895;SDS011;23733;53.254;10.430;2023-09-07T09:33:19;5.53;;;3.53;;
37895;SDS011;23733;53.254;10.430;2023-09-07T09:35:47;10.90;;;3.83;;
37895;SDS011;23733;53.254;10.430;2023-09-07T09:38:13;6.63;;;3.80;;
37895;SDS011;23733;53.254;10.430;2023-09-07T09:40:40;6.78;;;3.65;;
37895;SDS011;23733;53.254;10.430;2023-09-07T09:43:06;5.80;;;3.72;;
37895;SDS011;23733;53.254;10.430;2023-09-07T09:45:33;7.93;;;3.60;;
37895;SDS011;23733;53.254;10.430;2023-09-07T09:48:00;10.00;;;3.73;;
37895;SDS011;23733;53.254;10.430;2023-09-07T09:50:27;5.57;;;3.53;;
37895;SDS011;23733;53.254;10.430;2023-09-07T09:52:53;8.95;;;4.03;;
37895;SDS011;23733;53.254;10.430;2023-09-07T09:55:20;7.53;;;3.50;;
37895;SDS011;23733;53.254;10.430;2023-09-07T09:57:53;6.53;;;3.60;;
37895;SDS011;23733;53.254;10.430;2023-09-07T10:00:23;6.90;;;3.40;;
37895;SDS011;23733;53.254;10.430;2023-09-07T10:03:13;8.02;;;3.80;;
37895;SDS011;23733;53.254;10.430;2023-09-07T10:05:43;9.77;;;3.75;;
37895;SDS011;23733;53.254;10.430;2023-09-07T10:08:13;6.63;;;3.20;;
37895;SDS011;23733;53.254;10.430;2023-09-07T10:10:43;7.07;;;3.28;;
37895;SDS011;23733;53.254;10.430;2023-09-07T10:13:13;5.20;;;3.20;;
37895;SDS011;23733;53.254;10.430;2023-09-07T10:15:39;4.60;;;2.80;;
37895;SDS011;23733;53.254;10.430;2023-09-07T10:18:09;6.90;;;3.25;;
37895;SDS011;23733;53.254;10.430;2023-09-07T10:23:15;6.22;;;3.22;;
37895;SDS011;23733;53.254;10.430;2023-09-07T10:25:41;9.18;;;3.00;;
37895;SDS011;23733;53.254;10.430;2023-09-07T10:28:20;7.97;;;3.20;;
37895;SDS011;23733;53.254;10.430;2023-09-07T10:30:57;8.00;;;3.10;;
37895;SDS011;23733;53.254;10.430;2023-09-07T10:33:23;3.90;;;3.17;;
37895;SDS011;23733;53.254;10.430;2023-09-07T10:35:49;5.15;;;3.10;;
37895;SDS011;23733;53.254;10.430;2023-09-07T10:38:16;5.30;;;3.30;;
37895;SDS011;23733;53.254;10.430;2023-09-07T10:40:43;7.25;;;3.03;;
37895;SDS011;23733;53.254;10.430;2023-09-07T10:43:13;6.13;;;3.10;;
37895;SDS011;23733;53.254;10.430;2023-09-07T10:45:39;6.10;;;3.17;;
37895;SDS011;23733;53.254;10.430;2023-09-07T10:48:10;5.07;;;3.05;;
37895;SDS011;23733;53.254;10.430;2023-09-07T10:50:43;5.53;;;3.13;;
37895;SDS011;23733;53.254;10.430;2023-09-07T10:53:11;4.07;;;3.35;;
37895;SDS011;23733;53.254;10.430;2023-09-07T10:55:37;4.60;;;2.97;;
37895;SDS011;23733;53.254;10.430;2023-09-07T10:58:10;7.50;;;3.50;;
37895;SDS011;23733;53.254;10.430;2023-09-07T11:00:36;7.28;;;3.28;;
37895;SDS011;23733;53.254;10.430;2023-09-07T11:03:09;6.18;;;3.55;;
37895;SDS011;23733;53.254;10.430;2023-09-07T11:05:36;6.18;;;3.40;;
37895;SDS011;23733;53.254;10.430;2023-09-07T11:08:06;6.75;;;3.05;;
37895;SDS011;23733;53.254;10.430;2023-09-07T11:10:33;3.83;;;2.90;;
37895;SDS011;23733;53.254;10.430;2023-09-07T11:13:03;4.93;;;3.05;;
37895;SDS011;23733;53.254;10.430;2023-09-07T11:15:30;7.97;;;3.20;;
37895;SDS011;23733;53.254;10.430;2023-09-07T11:17:57;4.75;;;3.08;;
37895;SDS011;23733;53.254;10.430;2023-09-07T11:20:24;5.93;;;3.17;;
37895;SDS011;23733;53.254;10.430;2023-09-07T11:22:51;7.38;;;3.35;;
37895;SDS011;23733;53.254;10.430;2023-09-07T11:25:17;9.93;;;3.30;;
37895;SDS011;23733;53.254;10.430;2023-09-07T11:27:44;14.23;;;3.05;;
37895;SDS011;23733;53.254;10.430;2023-09-07T11:30:10;4.50;;;3.35;;
37895;SDS011;23733;53.254;10.430;2023-09-07T11:32:36;5.60;;;3.33;;
37895;SDS011;23733;53.254;10.430;2023-09-07T11:35:05;5.18;;;3.63;;
37895;SDS011;23733;53.254;10.430;2023-09-07T11:37:32;9.68;;;3.10;;
37895;SDS011;23733;53.254;10.430;2023-09-07T11:40:00;6.40;;;3.20;;
37895;SDS011;23733;53.254;10.430;2023-09-07T11:42:29;4.97;;;3.20;;
37895;SDS011;23733;53.254;10.430;2023-09-07T11:44:56;5.43;;;3.67;;
37895;SDS011;23733;53.254;10.430;2023-09-07T11:47:22;3.83;;;3.00;;
37895;SDS011;23733;53.254;10.430;2023-09-07T11:49:48;3.72;;;2.80;;
37895;SDS011;23733;53.254;10.430;2023-09-07T11:52:16;3.78;;;2.95;;
37895;SDS011;23733;53.254;10.430;2023-09-07T11:54:42;5.43;;;3.20;;
37895;SDS011;23733;53.254;10.430;2023-09-07T11:57:09;6.55;;;3.17;;
37895;SDS011;23733;53.254;10.430;2023-09-07T11:59:35;8.00;;;3.20;;
37895;SDS011;23733;53.254;10.430;2023-09-07T12:02:01;7.10;;;3.38;;
37895;SDS011;23733;53.254;10.430;2023-09-07T12:04:28;3.72;;;3.05;;
37895;SDS011;23733;53.254;10.430;2023-09-07T12:06:54;6.05;;;2.83;;
37895;SDS011;23733;53.254;10.430;2023-09-07T12:09:20;4.00;;;2.70;;
37895;SDS011;23733;53.254;10.430;2023-09-07T12:11:47;7.53;;;3.30;;
37895;SDS011;23733;53.254;10.430;2023-09-07T12:14:13;3.08;;;2.70;;
37895;SDS011;23733;53.254;10.430;2023-09-07T12:16:39;3.53;;;3.10;;
37895;SDS011;23733;53.254;10.430;2023-09-07T12:19:06;4.05;;;2.92;;
37895;SDS011;23733;53.254;10.430;2023-09-07T12:21:32;6.10;;;3.15;;
37895;SDS011;23733;53.254;10.430;2023-09-07T12:23:58;4.90;;;3.05;;
37895;SDS011;23733;53.254;10.430;2023-09-07T12:26:25;5.70;;;3.00;;
37895;SDS011;23733;53.254;10.430;2023-09-07T12:28:51;8.85;;;3.55;;
37895;SDS011;23733;53.254;10.430;2023-09-07T12:31:17;4.93;;;3.22;;
37895;SDS011;23733;53.254;10.430;2023-09-07T12:33:44;3.45;;;2.80;;
37895;SDS011;23733;53.254;10.430;2023-09-07T12:36:10;3.85;;;2.85;;
37895;SDS011;23733;53.254;10.430;2023-09-07T12:38:37;6.07;;;2.67;;
37895;SDS011;23733;53.254;10.430;2023-09-07T12:41:03;4.38;;;2.90;;
37895;SDS011;23733;53.254;10.430;2023-09-07T12:43:29;7.03;;;3.28;;
37895;SDS011;23733;53.254;10.430;2023-09-07T12:45:56;3.10;;;2.50;;
37895;SDS011;23733;53.254;10.430;2023-09-07T12:48:22;5.13;;;3.03;;
37895;SDS011;23733;53.254;10.430;2023-09-07T12:50:48;4.28;;;2.72;;
37895;SDS011;23733;53.254;10.430;2023-09-07T12:53:15;4.03;;;2.90;;
37895;SDS011;23733;53.254;10.430;2023-09-07T12:55:42;4.43;;;2.80;;
37895;SDS011;23733;53.254;10.430;2023-09-07T12:58:08;4.57;;;3.05;;
37895;SDS011;23733;53.254;10.430;2023-09-07T13:00:34;4.10;;;2.60;;
37895;SDS011;23733;53.254;10.430;2023-09-07T13:03:01;5.47;;;3.13;;
37895;SDS011;23733;53.254;10.430;2023-09-07T13:05:27;8.73;;;3.10;;
37895;SDS011;23733;53.254;10.430;2023-09-07T13:07:54;5.53;;;2.45;;
37895;SDS011;23733;53.254;10.430;2023-09-07T13:10:21;5.85;;;2.75;;
37895;SDS011;23733;53.254;10.430;2023-09-07T13:12:47;4.13;;;2.50;;
37895;SDS011;23733;53.254;10.430;2023-09-07T13:15:14;10.02;;;2.90;;
37895;SDS011;23733;53.254;10.430;2023-09-07T13:17:40;3.25;;;2.47;;
37895;SDS011;23733;53.254;10.430;2023-09-07T13:20:08;5.45;;;2.80;;
37895;SDS011;23733;53.254;10.430;2023-09-07T13:22:34;5.28;;;2.90;;
37895;SDS011;23733;53.254;10.430;2023-09-07T13:25:01;6.25;;;2.85;;
37895;SDS011;23733;53.254;10.430;2023-09-07T13:27:27;7.43;;;2.80;;
37895;SDS011;23733;53.254;10.430;2023-09-07T13:29:53;9.77;;;3.50;;
37895;SDS011;23733;53.254;10.430;2023-09-07T13:32:20;5.70;;;2.83;;
37895;SDS011;23733;53.254;10.430;2023-09-07T13:34:46;4.35;;;2.78;;
37895;SDS011;23733;53.254;10.430;2023-09-07T13:37:12;8.27;;;2.80;;
37895;SDS011;23733;53.254;10.430;2023-09-07T13:39:39;4.30;;;2.67;;
37895;SDS011;23733;53.254;10.430;2023-09-07T13:42:05;5.22;;;2.78;;
37895;SDS011;23733;53.254;10.430;2023-09-07T13:44:32;6.63;;;3.15;;
37895;SDS011;23733;53.254;10.430;2023-09-07T13:46:58;3.85;;;2.95;;
37895;SDS011;23733;53.254;10.430;2023-09-07T13:49:25;10.82;;;3.35;;
37895;SDS011;23733;53.254;10.430;2023-09-07T13:51:51;6.40;;;2.83;;
37895;SDS011;23733;53.254;10.430;2023-09-07T13:54:18;5.03;;;2.70;;
37895;SDS011;23733;53.254;10.430;2023-09-07T13:56:44;5.25;;;2.80;;
37895;SDS011;23733;53.254;10.430;2023-09-07T13:59:12;5.55;;;2.80;;
37895;SDS011;23733;53.254;10.430;2023-09-07T14:01:38;3.90;;;2.90;;
37895;SDS011;23733;53.254;10.430;2023-09-07T14:04:04;4.78;;;2.75;;
37895;SDS011;23733;53.254;10.430;2023-09-07T14:06:31;4.97;;;2.67;;
37895;SDS011;23733;53.254;10.430;2023-09-07T14:08:57;3.15;;;2.47;;
37895;SDS011;23733;53.254;10.430;2023-09-07T14:11:24;6.50;;;3.08;;
37895;SDS011;23733;53.254;10.430;2023-09-07T14:13:50;4.60;;;2.83;;
37895;SDS011;23733;53.254;10.430;2023-09-07T14:16:20;4.88;;;2.47;;
37895;SDS011;23733;53.254;10.430;2023-09-07T14:18:46;4.47;;;2.70;;
37895;SDS011;23733;53.254;10.430;2023-09-07T14:21:14;4.57;;;3.30;;
37895;SDS011;23733;53.254;10.430;2023-09-07T14:23:40;5.00;;;2.97;;
37895;SDS011;23733;53.254;10.430;2023-09-07T14:26:08;5.97;;;2.75;;
37895;SDS011;23733;53.254;10.430;2023-09-07T14:28:34;6.68;;;2.80;;
37895;SDS011;23733;53.254;10.430;2023-09-07T14:31:02;3.13;;;2.80;;
37895;SDS011;23733;53.254;10.430;2023-09-07T14:33:29;4.97;;;2.85;;
37895;SDS011;23733;53.254;10.430;2023-09-07T14:35:57;6.40;;;3.10;;